createdAt,value
2022-09-30T00:01:14.860Z,68.90
2022-09-30T00:05:02.686Z,67.70
2022-09-30T00:08:40.080Z,65.60
2022-09-30T00:12:27.347Z,63.60
2022-09-30T00:15:52.003Z,60.60
2022-09-30T00:19:39.824Z,60.80
2022-09-30T00:23:20.569Z,65.20
2022-09-30T00:27:11.364Z,63.20
2022-09-30T00:30:24.095Z,62.10
2022-09-30T00:33:55.700Z,65.00
2022-09-30T00:41:47.048Z,57.00
2022-09-30T00:45:39.968Z,55.90
2022-09-30T00:49:27.660Z,48.20
2022-09-30T00:53:06.572Z,50.50
2022-09-30T00:56:40.658Z,49.80
2022-09-30T01:00:30.518Z,47.10
2022-09-30T01:04:13.914Z,49.60
2022-09-30T01:08:00.150Z,47.80
2022-09-30T01:11:44.715Z,45.00
2022-09-30T01:15:32.554Z,42.30
2022-09-30T01:19:20.307Z,51.20
2022-09-30T01:23:19.570Z,46.00
2022-09-30T01:27:15.936Z,44.00
2022-09-30T01:31:04.959Z,45.00
2022-09-30T01:35:01.401Z,46.90
2022-09-30T01:39:06.970Z,44.30
2022-09-30T01:42:52.814Z,44.50
2022-09-30T01:46:43.609Z,42.60
2022-09-30T01:50:34.257Z,42.10
2022-09-30T01:54:29.376Z,41.50
2022-09-30T01:58:22.556Z,41.10
2022-09-30T02:02:05.910Z,47.30
2022-09-30T02:05:59.418Z,48.50
2022-09-30T02:09:54.410Z,49.50
2022-09-30T02:13:37.886Z,48.90
2022-09-30T02:17:30.985Z,46.20
2022-09-30T02:21:27.853Z,45.60
2022-09-30T02:25:03.448Z,42.40
2022-09-30T02:28:49.833Z,39.00
2022-09-30T02:32:37.964Z,42.60
2022-09-30T02:36:25.752Z,41.90
2022-09-30T02:40:28.077Z,40.00
2022-09-30T02:44:15.011Z,39.10
2022-09-30T02:48:11.556Z,40.10
2022-09-30T02:52:05.335Z,39.70
2022-09-30T02:56:11.099Z,39.80
2022-09-30T02:59:44.946Z,43.40
2022-09-30T03:03:36.188Z,39.60
2022-09-30T03:07:23.010Z,40.60
2022-09-30T03:11:15.148Z,39.60
2022-09-30T03:15:01.185Z,40.00
2022-09-30T03:18:48.947Z,41.00
2022-09-30T03:22:35.070Z,40.10
2022-09-30T03:26:24.197Z,39.30
2022-09-30T03:30:14.949Z,41.50
2022-09-30T03:34:08.163Z,40.20
2022-09-30T03:37:49.904Z,44.90
2022-09-30T03:41:43.654Z,42.30
2022-09-30T03:45:39.290Z,38.30
2022-09-30T03:49:28.331Z,38.40
2022-09-30T03:53:15.832Z,41.60
2022-09-30T03:57:06.172Z,42.20
2022-09-30T04:00:39.301Z,41.80
2022-09-30T04:04:17.086Z,38.30
2022-09-30T04:07:56.585Z,37.30
2022-09-30T04:11:37.769Z,38.40
2022-09-30T04:15:17.923Z,42.80
2022-09-30T04:18:59.677Z,38.20
2022-09-30T04:22:47.593Z,43.50
2022-09-30T04:26:29.275Z,41.30
2022-09-30T04:30:20.263Z,38.10
2022-09-30T04:34:14.251Z,39.10
2022-09-30T04:38:02.104Z,32.50
2022-09-30T04:41:30.631Z,39.70
2022-09-30T04:45:19.003Z,40.10
2022-09-30T04:49:09.066Z,39.70
2022-09-30T04:52:42.403Z,43.20
2022-09-30T04:56:30.168Z,40.60
2022-09-30T05:00:17.874Z,44.70
2022-09-30T05:04:07.741Z,42.90
2022-09-30T05:07:47.188Z,41.60
2022-09-30T05:11:06.625Z,40.20
2022-09-30T05:14:47.038Z,40.70
2022-09-30T05:18:18.857Z,42.40
2022-09-30T05:22:05.378Z,41.10
2022-09-30T05:25:53.335Z,45.80
2022-09-30T05:29:32.321Z,45.30
2022-09-30T05:33:14.745Z,41.30
2022-09-30T05:36:55.228Z,40.90
2022-09-30T05:40:43.660Z,38.90
2022-09-30T05:44:23.812Z,43.60
2022-09-30T05:48:10.026Z,41.60
2022-09-30T05:51:58.083Z,43.00
2022-09-30T05:55:45.259Z,44.50
2022-09-30T05:59:24.318Z,47.40
2022-09-30T06:02:43.618Z,47.60
2022-09-30T06:06:40.828Z,44.30
2022-09-30T06:10:18.643Z,45.10
2022-09-30T06:14:05.613Z,46.00
2022-09-30T06:17:47.649Z,35.70
2022-09-30T06:21:26.353Z,48.10
2022-09-30T06:25:14.479Z,45.10
2022-09-30T06:28:59.752Z,44.90
2022-09-30T06:32:39.548Z,43.00
2022-09-30T06:36:27.066Z,39.10
2022-09-30T06:40:14.675Z,43.80
2022-09-30T06:44:03.386Z,44.10
2022-09-30T06:47:52.484Z,46.50
2022-09-30T06:51:26.564Z,44.30
2022-09-30T06:55:13.449Z,41.10
2022-09-30T06:58:54.459Z,43.00
2022-09-30T07:02:42.360Z,45.90
2022-09-30T07:06:28.793Z,52.30
2022-09-30T07:10:09.035Z,50.20
2022-09-30T07:13:57.098Z,46.00
2022-09-30T07:17:44.962Z,40.10
2022-09-30T07:21:32.637Z,38.30
2022-09-30T07:25:20.524Z,37.80
2022-09-30T07:29:00.445Z,30.40
2022-09-30T07:32:33.945Z,37.80
2022-09-30T07:36:21.983Z,34.90
2022-09-30T07:39:54.744Z,35.20
2022-09-30T07:43:35.762Z,34.80
2022-09-30T07:47:24.879Z,36.60
2022-09-30T07:51:12.602Z,36.40
2022-09-30T07:55:00.450Z,30.50
2022-09-30T07:58:38.485Z,28.70
2022-09-30T08:02:17.611Z,31.30
2022-09-30T08:06:05.532Z,30.90
2022-09-30T08:09:53.636Z,30.10
2022-09-30T08:13:41.507Z,27.60
2022-09-30T08:17:29.386Z,26.30
2022-09-30T08:21:17.027Z,27.00
2022-09-30T08:25:04.625Z,23.20
2022-09-30T08:28:50.774Z,25.50
2022-09-30T08:32:38.677Z,28.30
2022-09-30T08:36:27.521Z,26.30
2022-09-30T08:40:16.277Z,24.20
2022-09-30T08:44:25.246Z,26.00
2022-09-30T08:48:11.627Z,26.20
2022-09-30T08:52:02.534Z,23.30
2022-09-30T08:55:53.666Z,23.60
2022-09-30T08:59:42.042Z,21.70
2022-09-30T09:03:38.809Z,21.10
2022-09-30T09:07:31.074Z,19.70
2022-09-30T09:11:22.910Z,20.20
2022-09-30T09:15:16.788Z,18.00
2022-09-30T09:19:15.611Z,18.50
2022-09-30T09:23:03.173Z,18.20
2022-09-30T09:26:45.041Z,18.30
2022-09-30T09:30:41.641Z,19.20
2022-09-30T09:34:40.635Z,19.20
2022-09-30T09:38:46.904Z,19.00
2022-09-30T09:42:36.304Z,18.40
2022-09-30T09:46:24.272Z,20.30
2022-09-30T09:50:15.257Z,20.80
2022-09-30T09:54:18.194Z,22.40
2022-09-30T09:58:09.323Z,18.90
2022-09-30T10:01:57.505Z,18.40
2022-09-30T10:05:45.861Z,13.80
2022-09-30T10:09:35.293Z,14.10
2022-09-30T10:13:26.266Z,13.50
2022-09-30T10:17:24.242Z,15.20
2022-09-30T10:21:15.248Z,13.10
2022-09-30T10:25:06.139Z,13.00
2022-09-30T10:29:03.154Z,13.60
2022-09-30T10:32:44.067Z,14.20
2022-09-30T10:36:37.781Z,14.50
2022-09-30T10:40:28.794Z,14.10
2022-09-30T10:44:22.343Z,16.30
2022-09-30T10:48:10.879Z,15.20
2022-09-30T10:51:40.222Z,14.70
2022-09-30T10:55:40.746Z,16.10
2022-09-30T10:59:21.704Z,17.70
2022-09-30T11:03:15.338Z,17.50
2022-09-30T11:07:03.952Z,19.20
2022-09-30T11:10:54.392Z,17.80
2022-09-30T11:15:15.674Z,17.80
2022-09-30T11:19:04.150Z,18.60
2022-09-30T11:22:57.833Z,18.60
2022-09-30T11:26:46.112Z,19.40
2022-09-30T11:30:36.857Z,18.30
2022-09-30T11:34:31.369Z,19.10
2022-09-30T11:38:08.202Z,20.70
2022-09-30T11:41:59.341Z,19.00
2022-09-30T11:45:59.327Z,20.70
2022-09-30T11:49:59.355Z,19.50
2022-09-30T11:53:53.121Z,15.40
2022-09-30T11:57:49.815Z,14.50
2022-09-30T12:01:38.211Z,17.10
2022-09-30T12:05:26.036Z,15.20
2022-09-30T12:09:29.272Z,18.30
2022-09-30T12:13:17.900Z,20.00
2022-09-30T12:17:05.135Z,17.30
2022-09-30T12:21:10.877Z,17.40
2022-09-30T12:25:20.283Z,17.60
2022-09-30T12:29:06.319Z,15.20
2022-09-30T12:32:55.051Z,16.50
2022-09-30T12:36:54.610Z,17.00
2022-09-30T12:40:42.076Z,18.60
2022-09-30T12:44:48.526Z,18.60
2022-09-30T12:48:37.292Z,18.20
2022-09-30T12:52:26.681Z,16.10
2022-09-30T12:56:17.589Z,15.10
2022-09-30T13:00:06.471Z,14.50
2022-09-30T13:03:58.012Z,15.00
2022-09-30T13:07:46.883Z,17.40
2022-09-30T13:11:38.864Z,16.90
2022-09-30T13:15:42.951Z,16.70
2022-09-30T13:19:31.648Z,18.20
2022-09-30T13:23:20.690Z,17.60
2022-09-30T13:27:26.962Z,19.00
2022-09-30T13:31:15.708Z,17.10
2022-09-30T13:34:53.999Z,17.20
2022-09-30T13:38:52.513Z,15.90
2022-09-30T13:42:40.480Z,14.50
2022-09-30T13:46:31.204Z,14.20
2022-09-30T13:50:40.579Z,15.20
2022-09-30T13:54:31.323Z,12.70
2022-09-30T13:58:20.523Z,14.30
2022-09-30T14:02:21.415Z,14.30
2022-09-30T14:06:12.089Z,15.10
2022-09-30T14:10:17.122Z,15.70
2022-09-30T14:14:28.951Z,14.80
2022-09-30T14:18:22.321Z,13.60
2022-09-30T14:22:14.381Z,14.90
2022-09-30T14:26:03.204Z,14.40
2022-09-30T14:30:03.219Z,13.40
2022-09-30T14:34:02.884Z,14.20
2022-09-30T14:37:56.192Z,12.90
2022-09-30T14:41:41.312Z,13.10
2022-09-30T14:45:08.926Z,12.10
2022-09-30T14:48:48.950Z,14.80
2022-09-30T14:52:29.381Z,13.80
2022-09-30T14:56:23.842Z,21.20
2022-09-30T15:00:18.138Z,15.50
2022-09-30T15:04:06.904Z,16.30
2022-09-30T15:07:54.858Z,15.80
2022-09-30T15:11:49.797Z,16.30
2022-09-30T15:16:02.136Z,16.20
2022-09-30T15:19:54.360Z,16.40
2022-09-30T15:23:42.495Z,16.70
2022-09-30T15:27:30.608Z,15.80
2022-09-30T15:31:17.492Z,16.70
2022-09-30T15:35:05.431Z,16.40
2022-09-30T15:38:56.096Z,17.40
2022-09-30T15:42:44.908Z,17.90
2022-09-30T15:46:33.551Z,19.00
2022-09-30T15:50:19.349Z,20.40
2022-09-30T15:54:09.944Z,19.90
2022-09-30T15:58:17.739Z,17.40
2022-09-30T16:02:02.994Z,17.20
2022-09-30T16:05:54.017Z,18.10
2022-09-30T16:09:45.532Z,45.50
2022-09-30T16:13:33.967Z,18.70
2022-09-30T16:17:18.589Z,16.60
2022-09-30T16:21:06.660Z,21.90
2022-09-30T16:25:04.546Z,21.80
2022-09-30T16:29:14.652Z,55.60
2022-09-30T16:32:52.146Z,42.90
2022-09-30T16:36:40.323Z,38.60
2022-09-30T16:40:10.110Z,52.30
2022-09-30T16:43:52.360Z,76.70
2022-09-30T16:47:40.264Z,62.00
2022-09-30T16:51:07.277Z,55.30
2022-09-30T16:54:43.742Z,55.20
2022-09-30T16:58:32.511Z,43.90
2022-09-30T17:02:20.387Z,36.80
2022-09-30T17:06:07.705Z,35.40
2022-09-30T17:09:56.178Z,37.60
2022-09-30T17:13:45.603Z,35.70
2022-09-30T17:17:34.125Z,30.10
2022-09-30T17:21:22.954Z,49.10
2022-09-30T17:25:03.573Z,37.00
2022-09-30T17:28:55.385Z,39.20
2022-09-30T17:32:46.295Z,50.80
2022-09-30T17:36:30.147Z,41.00
2022-09-30T17:40:18.937Z,46.10
2022-09-30T17:43:56.946Z,41.80
2022-09-30T17:47:30.898Z,44.50
2022-09-30T17:51:27.084Z,36.00
2022-09-30T17:55:15.123Z,35.80
2022-09-30T17:59:02.431Z,33.00
2022-09-30T18:02:55.228Z,35.60
2022-09-30T18:06:42.419Z,44.60
2022-09-30T18:10:13.233Z,43.00
2022-09-30T18:14:02.526Z,40.60
2022-09-30T18:17:54.743Z,41.70
2022-09-30T18:25:36.709Z,39.60
2022-09-30T18:29:36.019Z,39.70
2022-09-30T18:33:42.302Z,43.00
2022-09-30T18:37:12.577Z,53.50
2022-09-30T18:40:55.598Z,54.10
2022-09-30T18:44:37.252Z,60.60
2022-09-30T18:48:25.853Z,58.90
2022-09-30T18:52:09.432Z,60.50
2022-09-30T18:55:15.774Z,63.10
2022-09-30T18:59:17.177Z,65.60
2022-09-30T19:02:46.411Z,71.70
2022-09-30T19:06:14.057Z,62.90
2022-09-30T19:09:22.837Z,54.70
2022-09-30T19:12:54.868Z,58.70
2022-09-30T19:16:43.673Z,54.80
2022-09-30T19:20:19.491Z,52.70
2022-09-30T19:24:07.774Z,52.90
2022-09-30T19:27:56.846Z,60.00
2022-09-30T19:31:26.364Z,62.60
2022-09-30T19:35:06.269Z,58.60
2022-09-30T19:38:38.063Z,102.10
2022-09-30T19:42:14.096Z,97.80
2022-09-30T19:45:53.516Z,98.30
2022-09-30T19:49:22.686Z,191.20
2022-09-30T19:52:57.880Z,106.30
2022-09-30T19:56:51.162Z,67.40
2022-09-30T20:00:31.894Z,63.10
2022-09-30T20:04:01.384Z,57.00
2022-09-30T20:07:43.800Z,52.60
2022-09-30T20:11:32.025Z,57.30
2022-09-30T20:15:19.071Z,51.60
2022-09-30T20:19:08.568Z,50.90
2022-09-30T20:22:56.871Z,50.30
2022-09-30T20:26:44.897Z,50.10
2022-09-30T20:30:27.508Z,49.50
2022-09-30T20:34:09.277Z,50.50
2022-09-30T20:37:57.907Z,46.80
2022-09-30T20:41:47.587Z,48.90
2022-09-30T20:45:02.904Z,50.30
2022-09-30T20:48:13.445Z,48.50
2022-09-30T20:52:05.480Z,45.70
2022-09-30T20:55:46.005Z,42.60
2022-09-30T20:59:34.312Z,45.50
2022-09-30T21:03:22.372Z,46.60
2022-09-30T21:07:10.235Z,44.10
2022-09-30T21:10:50.709Z,41.00
2022-09-30T21:14:42.343Z,41.90
2022-09-30T21:18:30.444Z,47.90
2022-09-30T21:22:17.975Z,42.10
2022-09-30T21:25:59.627Z,39.40
2022-09-30T21:29:47.483Z,40.20
2022-09-30T21:33:35.495Z,37.10
2022-09-30T21:37:23.893Z,38.40
2022-09-30T21:41:13.327Z,35.70
2022-09-30T21:44:54.085Z,37.10
2022-09-30T21:48:32.020Z,36.70
2022-09-30T21:52:19.820Z,35.50
2022-09-30T21:56:07.969Z,35.60
2022-09-30T21:59:50.262Z,39.10
2022-09-30T22:03:39.175Z,54.40
2022-09-30T22:07:12.790Z,39.60
2022-09-30T22:10:46.214Z,42.30
2022-09-30T22:14:34.171Z,46.40
2022-09-30T22:18:21.849Z,44.20
2022-09-30T22:22:05.922Z,41.00
2022-09-30T22:25:53.940Z,40.50
2022-09-30T22:29:35.671Z,39.00
2022-09-30T22:33:23.688Z,38.40
2022-09-30T22:37:10.213Z,37.20
2022-09-30T22:40:58.048Z,37.00
2022-09-30T22:44:28.938Z,37.20
2022-09-30T22:48:16.886Z,38.00
2022-09-30T22:51:57.414Z,38.50
2022-09-30T22:55:44.976Z,40.80
2022-09-30T22:59:32.531Z,37.30
2022-09-30T23:03:20.335Z,37.50
2022-09-30T23:07:08.467Z,41.50
2022-09-30T23:10:56.186Z,39.00
2022-09-30T23:14:34.253Z,36.20
2022-09-30T23:18:21.972Z,36.30
2022-09-30T23:22:12.407Z,38.10
2022-09-30T23:26:00.009Z,37.20
2022-09-30T23:29:40.242Z,38.70
2022-09-30T23:33:17.845Z,37.60
2022-09-30T23:37:05.983Z,35.90
2022-09-30T23:40:46.060Z,32.90
2022-09-30T23:44:33.943Z,34.90
2022-09-30T23:48:09.929Z,53.50
2022-09-30T23:51:50.789Z,44.30
2022-09-30T23:55:38.366Z,32.30
2022-09-30T23:59:19.921Z,30.90
